sensor_id;sensor_type;location;lat;lon;timestamp;temperature;humidity
7704;DHT22;3894;49.700;10.770;2022-07-22T00:01:40;19.50;99.90
7704;DHT22;3894;49.700;10.770;2022-07-22T00:04:05;19.40;99.90
7704;DHT22;3894;49.700;10.770;2022-07-22T00:06:31;19.30;99.90
7704;DHT22;3894;49.700;10.770;2022-07-22T00:08:57;19.30;99.90
7704;DHT22;3894;49.700;10.770;2022-07-22T00:11:23;19.20;99.90
7704;DHT22;3894;49.700;10.770;2022-07-22T00:13:48;19.00;99.90
7704;DHT22;3894;49.700;10.770;2022-07-22T00:16:14;18.90;99.90
7704;DHT22;3894;49.700;10.770;2022-07-22T00:18:40;18.90;99.90
7704;DHT22;3894;49.700;10.770;2022-07-22T00:21:05;18.80;99.90
7704;DHT22;3894;49.700;10.770;2022-07-22T00:23:32;18.90;99.90
7704;DHT22;3894;49.700;10.770;2022-07-22T00:25:58;19.10;99.90
7704;DHT22;3894;49.700;10.770;2022-07-22T00:28:23;19.00;99.90
7704;DHT22;3894;49.700;10.770;2022-07-22T00:30:49;18.90;99.90
7704;DHT22;3894;49.700;10.770;2022-07-22T00:33:14;18.80;99.90
7704;DHT22;3894;49.700;10.770;2022-07-22T00:35:40;19.00;99.90
7704;DHT22;3894;49.700;10.770;2022-07-22T00:38:06;19.10;99.90
7704;DHT22;3894;49.700;10.770;2022-07-22T00:40:31;19.00;99.90
7704;DHT22;3894;49.700;10.770;2022-07-22T00:42:57;19.00;99.90
7704;DHT22;3894;49.700;10.770;2022-07-22T00:45:22;19.10;99.90
7704;DHT22;3894;49.700;10.770;2022-07-22T00:47:48;19.10;99.90
7704;DHT22;3894;49.700;10.770;2022-07-22T00:50:13;18.90;99.90
7704;DHT22;3894;49.700;10.770;2022-07-22T00:52:41;18.60;99.90
7704;DHT22;3894;49.700;10.770;2022-07-22T00:55:07;18.50;99.90
7704;DHT22;3894;49.700;10.770;2022-07-22T00:57:39;18.50;99.90
7704;DHT22;3894;49.700;10.770;2022-07-22T01:00:08;18.60;99.90
7704;DHT22;3894;49.700;10.770;2022-07-22T01:02:34;18.60;99.90
7704;DHT22;3894;49.700;10.770;2022-07-22T01:05:00;18.70;99.90
7704;DHT22;3894;49.700;10.770;2022-07-22T01:07:25;18.70;99.90
7704;DHT22;3894;49.700;10.770;2022-07-22T01:09:51;18.90;99.90
7704;DHT22;3894;49.700;10.770;2022-07-22T01:12:17;18.90;99.90
7704;DHT22;3894;49.700;10.770;2022-07-22T01:14:42;19.00;99.90
7704;DHT22;3894;49.700;10.770;2022-07-22T01:17:11;19.00;99.90
7704;DHT22;3894;49.700;10.770;2022-07-22T01:19:36;19.00;99.90
7704;DHT22;3894;49.700;10.770;2022-07-22T01:22:08;19.00;99.90
7704;DHT22;3894;49.700;10.770;2022-07-22T01:24:34;18.90;99.90
7704;DHT22;3894;49.700;10.770;2022-07-22T01:27:03;19.00;99.90
7704;DHT22;3894;49.700;10.770;2022-07-22T01:29:29;18.70;99.90
7704;DHT22;3894;49.700;10.770;2022-07-22T01:31:54;18.50;99.90
7704;DHT22;3894;49.700;10.770;2022-07-22T01:34:22;18.40;99.90
7704;DHT22;3894;49.700;10.770;2022-07-22T01:36:51;18.30;99.90
7704;DHT22;3894;49.700;10.770;2022-07-22T01:39:17;18.10;99.90
7704;DHT22;3894;49.700;10.770;2022-07-22T01:41:44;18.00;99.90
7704;DHT22;3894;49.700;10.770;2022-07-22T01:44:09;18.00;99.90
7704;DHT22;3894;49.700;10.770;2022-07-22T01:46:35;18.20;99.90
7704;DHT22;3894;49.700;10.770;2022-07-22T01:49:01;18.40;99.90
7704;DHT22;3894;49.700;10.770;2022-07-22T01:51:27;18.70;99.90
7704;DHT22;3894;49.700;10.770;2022-07-22T01:53:53;18.80;99.90
7704;DHT22;3894;49.700;10.770;2022-07-22T01:56:18;18.90;99.90
7704;DHT22;3894;49.700;10.770;2022-07-22T01:58:44;18.80;99.90
7704;DHT22;3894;49.700;10.770;2022-07-22T02:01:10;18.60;99.90
7704;DHT22;3894;49.700;10.770;2022-07-22T02:03:36;18.50;99.90
7704;DHT22;3894;49.700;10.770;2022-07-22T02:06:08;18.40;99.90
7704;DHT22;3894;49.700;10.770;2022-07-22T02:08:34;18.30;99.90
7704;DHT22;3894;49.700;10.770;2022-07-22T02:11:00;18.20;99.90
7704;DHT22;3894;49.700;10.770;2022-07-22T02:13:26;18.10;99.90
7704;DHT22;3894;49.700;10.770;2022-07-22T02:15:53;17.90;99.90
7704;DHT22;3894;49.700;10.770;2022-07-22T02:18:18;17.80;99.90
7704;DHT22;3894;49.700;10.770;2022-07-22T02:20:45;17.70;99.90
7704;DHT22;3894;49.700;10.770;2022-07-22T02:23:11;17.90;99.90
7704;DHT22;3894;49.700;10.770;2022-07-22T02:25:38;17.90;99.90
7704;DHT22;3894;49.700;10.770;2022-07-22T02:28:04;18.00;99.90
7704;DHT22;3894;49.700;10.770;2022-07-22T02:30:29;18.00;99.90
7704;DHT22;3894;49.700;10.770;2022-07-22T02:32:56;18.00;99.90
7704;DHT22;3894;49.700;10.770;2022-07-22T02:35:21;18.20;99.90
7704;DHT22;3894;49.700;10.770;2022-07-22T02:37:47;18.20;99.90
7704;DHT22;3894;49.700;10.770;2022-07-22T02:40:13;18.00;99.90
7704;DHT22;3894;49.700;10.770;2022-07-22T02:42:39;17.90;99.90
7704;DHT22;3894;49.700;10.770;2022-07-22T02:45:05;17.80;99.90
7704;DHT22;3894;49.700;10.770;2022-07-22T02:47:31;17.80;99.90
7704;DHT22;3894;49.700;10.770;2022-07-22T02:50:02;18.00;99.90
7704;DHT22;3894;49.700;10.770;2022-07-22T02:52:28;17.90;99.90
7704;DHT22;3894;49.700;10.770;2022-07-22T02:54:54;17.80;99.90
7704;DHT22;3894;49.700;10.770;2022-07-22T02:57:20;17.70;99.90
7704;DHT22;3894;49.700;10.770;2022-07-22T02:59:45;17.60;99.90
7704;DHT22;3894;49.700;10.770;2022-07-22T03:02:11;17.70;99.90
7704;DHT22;3894;49.700;10.770;2022-07-22T03:04:37;17.80;99.90
7704;DHT22;3894;49.700;10.770;2022-07-22T03:07:02;18.00;99.90
7704;DHT22;3894;49.700;10.770;2022-07-22T03:09:28;18.00;99.90
7704;DHT22;3894;49.700;10.770;2022-07-22T03:11:54;18.00;99.90
7704;DHT22;3894;49.700;10.770;2022-07-22T03:14:19;17.90;99.90
7704;DHT22;3894;49.700;10.770;2022-07-22T03:16:51;18.10;99.90
7704;DHT22;3894;49.700;10.770;2022-07-22T03:19:17;18.00;99.90
7704;DHT22;3894;49.700;10.770;2022-07-22T03:21:43;17.80;99.90
7704;DHT22;3894;49.700;10.770;2022-07-22T03:24:09;17.90;99.90
7704;DHT22;3894;49.700;10.770;2022-07-22T03:26:34;18.00;99.90
7704;DHT22;3894;49.700;10.770;2022-07-22T03:29:00;18.00;99.90
7704;DHT22;3894;49.700;10.770;2022-07-22T03:31:26;18.00;99.90
7704;DHT22;3894;49.700;10.770;2022-07-22T03:33:52;17.90;99.90
7704;DHT22;3894;49.700;10.770;2022-07-22T03:36:24;17.80;99.90
7704;DHT22;3894;49.700;10.770;2022-07-22T03:38:49;17.80;99.90
7704;DHT22;3894;49.700;10.770;2022-07-22T03:41:15;17.80;99.90
7704;DHT22;3894;49.700;10.770;2022-07-22T03:43:40;17.60;99.90
7704;DHT22;3894;49.700;10.770;2022-07-22T03:46:06;17.30;99.90
7704;DHT22;3894;49.700;10.770;2022-07-22T03:48:34;17.20;99.90
7704;DHT22;3894;49.700;10.770;2022-07-22T03:51:01;17.20;99.90
7704;DHT22;3894;49.700;10.770;2022-07-22T03:53:26;17.30;99.90
7704;DHT22;3894;49.700;10.770;2022-07-22T03:55:52;17.50;99.90
7704;DHT22;3894;49.700;10.770;2022-07-22T03:58:24;17.20;99.90
7704;DHT22;3894;49.700;10.770;2022-07-22T04:00:49;17.00;99.90
7704;DHT22;3894;49.700;10.770;2022-07-22T04:03:15;16.90;99.90
7704;DHT22;3894;49.700;10.770;2022-07-22T04:05:41;16.80;99.90
7704;DHT22;3894;49.700;10.770;2022-07-22T04:08:07;17.10;99.90
7704;DHT22;3894;49.700;10.770;2022-07-22T04:10:32;17.20;99.90
7704;DHT22;3894;49.700;10.770;2022-07-22T04:12:58;17.30;99.90
7704;DHT22;3894;49.700;10.770;2022-07-22T04:15:24;17.40;99.90
7704;DHT22;3894;49.700;10.770;2022-07-22T04:17:49;17.50;99.90
7704;DHT22;3894;49.700;10.770;2022-07-22T04:20:15;17.60;99.90
7704;DHT22;3894;49.700;10.770;2022-07-22T04:22:40;17.70;99.90
7704;DHT22;3894;49.700;10.770;2022-07-22T04:25:06;17.70;99.90
7704;DHT22;3894;49.700;10.770;2022-07-22T04:27:32;17.70;99.90
7704;DHT22;3894;49.700;10.770;2022-07-22T04:29:58;17.70;99.90
7704;DHT22;3894;49.700;10.770;2022-07-22T04:32:27;17.70;99.90
7704;DHT22;3894;49.700;10.770;2022-07-22T04:34:52;17.80;99.90
7704;DHT22;3894;49.700;10.770;2022-07-22T04:37:18;17.90;99.90
7704;DHT22;3894;49.700;10.770;2022-07-22T04:39:44;18.10;99.90
7704;DHT22;3894;49.700;10.770;2022-07-22T04:42:12;18.10;99.90
7704;DHT22;3894;49.700;10.770;2022-07-22T04:44:38;18.10;99.90
7704;DHT22;3894;49.700;10.770;2022-07-22T04:47:04;18.10;99.90
7704;DHT22;3894;49.700;10.770;2022-07-22T04:49:29;18.30;99.90
7704;DHT22;3894;49.700;10.770;2022-07-22T04:51:55;18.30;99.90
7704;DHT22;3894;49.700;10.770;2022-07-22T04:54:20;17.90;99.90
7704;DHT22;3894;49.700;10.770;2022-07-22T04:56:46;18.10;99.90
7704;DHT22;3894;49.700;10.770;2022-07-22T04:59:12;18.20;99.90
7704;DHT22;3894;49.700;10.770;2022-07-22T05:01:37;18.30;99.90
7704;DHT22;3894;49.700;10.770;2022-07-22T05:04:06;18.40;99.90
7704;DHT22;3894;49.700;10.770;2022-07-22T05:06:31;18.40;99.90
7704;DHT22;3894;49.700;10.770;2022-07-22T05:08:57;18.40;99.90
7704;DHT22;3894;49.700;10.770;2022-07-22T05:11:23;18.40;99.90
7704;DHT22;3894;49.700;10.770;2022-07-22T05:13:49;18.60;99.90
7704;DHT22;3894;49.700;10.770;2022-07-22T05:16:14;18.70;99.90
7704;DHT22;3894;49.700;10.770;2022-07-22T05:18:40;18.90;99.90
7704;DHT22;3894;49.700;10.770;2022-07-22T05:21:05;19.00;99.90
7704;DHT22;3894;49.700;10.770;2022-07-22T05:23:32;19.20;99.90
7704;DHT22;3894;49.700;10.770;2022-07-22T05:25:57;19.50;99.90
7704;DHT22;3894;49.700;10.770;2022-07-22T05:28:23;19.80;99.90
7704;DHT22;3894;49.700;10.770;2022-07-22T05:30:48;19.80;99.90
7704;DHT22;3894;49.700;10.770;2022-07-22T05:33:14;19.80;99.90
7704;DHT22;3894;49.700;10.770;2022-07-22T05:35:39;19.90;99.90
7704;DHT22;3894;49.700;10.770;2022-07-22T05:38:05;20.10;99.90
7704;DHT22;3894;49.700;10.770;2022-07-22T05:40:31;20.20;99.90
7704;DHT22;3894;49.700;10.770;2022-07-22T05:42:57;20.30;99.90
7704;DHT22;3894;49.700;10.770;2022-07-22T05:45:23;20.40;99.90
7704;DHT22;3894;49.700;10.770;2022-07-22T05:47:48;20.60;99.90
7704;DHT22;3894;49.700;10.770;2022-07-22T05:50:14;20.70;99.90
7704;DHT22;3894;49.700;10.770;2022-07-22T05:52:39;20.80;99.90
7704;DHT22;3894;49.700;10.770;2022-07-22T05:55:05;20.90;99.90
7704;DHT22;3894;49.700;10.770;2022-07-22T05:57:31;21.00;99.90
7704;DHT22;3894;49.700;10.770;2022-07-22T05:59:57;21.20;99.90
7704;DHT22;3894;49.700;10.770;2022-07-22T06:02:22;21.20;99.90
7704;DHT22;3894;49.700;10.770;2022-07-22T06:04:48;21.10;99.90
7704;DHT22;3894;49.700;10.770;2022-07-22T06:07:14;21.10;99.90
7704;DHT22;3894;49.700;10.770;2022-07-22T06:09:39;21.50;99.90
7704;DHT22;3894;49.700;10.770;2022-07-22T06:12:05;21.50;99.90
7704;DHT22;3894;49.700;10.770;2022-07-22T06:14:31;21.80;99.90
7704;DHT22;3894;49.700;10.770;2022-07-22T06:16:57;21.80;99.90
7704;DHT22;3894;49.700;10.770;2022-07-22T06:19:22;22.00;99.90
7704;DHT22;3894;49.700;10.770;2022-07-22T06:21:50;22.20;99.90
7704;DHT22;3894;49.700;10.770;2022-07-22T06:24:16;22.00;99.90
7704;DHT22;3894;49.700;10.770;2022-07-22T06:26:41;21.80;99.90
7704;DHT22;3894;49.700;10.770;2022-07-22T06:29:07;21.90;99.90
7704;DHT22;3894;49.700;10.770;2022-07-22T06:31:33;22.20;99.90
7704;DHT22;3894;49.700;10.770;2022-07-22T06:33:58;22.10;99.90
7704;DHT22;3894;49.700;10.770;2022-07-22T06:36:24;22.10;99.90
7704;DHT22;3894;49.700;10.770;2022-07-22T06:38:49;22.50;99.90
7704;DHT22;3894;49.700;10.770;2022-07-22T06:41:15;22.50;99.90
7704;DHT22;3894;49.700;10.770;2022-07-22T06:43:45;22.30;99.90
7704;DHT22;3894;49.700;10.770;2022-07-22T06:46:10;22.40;99.90
7704;DHT22;3894;49.700;10.770;2022-07-22T06:48:35;22.60;99.90
7704;DHT22;3894;49.700;10.770;2022-07-22T06:51:01;23.10;99.90
7704;DHT22;3894;49.700;10.770;2022-07-22T06:53:27;23.40;99.90
7704;DHT22;3894;49.700;10.770;2022-07-22T06:55:52;23.70;99.90
7704;DHT22;3894;49.700;10.770;2022-07-22T06:58:18;23.80;99.90
7704;DHT22;3894;49.700;10.770;2022-07-22T07:00:43;23.80;99.90
7704;DHT22;3894;49.700;10.770;2022-07-22T07:03:09;23.80;99.90
7704;DHT22;3894;49.700;10.770;2022-07-22T07:05:34;23.90;99.90
7704;DHT22;3894;49.700;10.770;2022-07-22T07:08:00;23.90;99.90
7704;DHT22;3894;49.700;10.770;2022-07-22T07:10:25;23.80;99.90
7704;DHT22;3894;49.700;10.770;2022-07-22T07:12:55;24.00;99.90
7704;DHT22;3894;49.700;10.770;2022-07-22T07:15:21;24.30;99.90
7704;DHT22;3894;49.700;10.770;2022-07-22T07:17:47;24.60;99.90
7704;DHT22;3894;49.700;10.770;2022-07-22T07:20:12;24.70;99.90
7704;DHT22;3894;49.700;10.770;2022-07-22T07:22:38;24.20;99.90
7704;DHT22;3894;49.700;10.770;2022-07-22T07:25:04;23.90;99.90
7704;DHT22;3894;49.700;10.770;2022-07-22T07:27:30;23.80;99.90
7704;DHT22;3894;49.700;10.770;2022-07-22T07:29:55;23.70;99.90
7704;DHT22;3894;49.700;10.770;2022-07-22T07:32:21;23.90;99.90
7704;DHT22;3894;49.700;10.770;2022-07-22T07:34:47;24.40;99.90
7704;DHT22;3894;49.700;10.770;2022-07-22T07:37:12;24.80;99.90
7704;DHT22;3894;49.700;10.770;2022-07-22T07:39:38;25.00;99.90
7704;DHT22;3894;49.700;10.770;2022-07-22T07:42:03;25.30;99.90
7704;DHT22;3894;49.700;10.770;2022-07-22T07:44:29;25.50;99.90
7704;DHT22;3894;49.700;10.770;2022-07-22T07:46:54;25.60;99.90
7704;DHT22;3894;49.700;10.770;2022-07-22T07:49:20;25.60;99.90
7704;DHT22;3894;49.700;10.770;2022-07-22T07:51:46;25.80;99.90
7704;DHT22;3894;49.700;10.770;2022-07-22T07:54:11;25.30;99.90
7704;DHT22;3894;49.700;10.770;2022-07-22T07:56:37;25.10;99.90
7704;DHT22;3894;49.700;10.770;2022-07-22T07:59:02;25.10;99.90
7704;DHT22;3894;49.700;10.770;2022-07-22T08:01:28;25.40;99.90
7704;DHT22;3894;49.700;10.770;2022-07-22T08:03:54;25.40;99.90
7704;DHT22;3894;49.700;10.770;2022-07-22T08:06:19;24.90;99.90
7704;DHT22;3894;49.700;10.770;2022-07-22T08:08:45;25.10;99.90
7704;DHT22;3894;49.700;10.770;2022-07-22T08:11:10;25.20;99.90
7704;DHT22;3894;49.700;10.770;2022-07-22T08:13:36;24.80;99.90
7704;DHT22;3894;49.700;10.770;2022-07-22T08:16:01;24.40;99.90
7704;DHT22;3894;49.700;10.770;2022-07-22T08:18:27;24.60;99.90
7704;DHT22;3894;49.700;10.770;2022-07-22T08:20:53;25.20;99.90
7704;DHT22;3894;49.700;10.770;2022-07-22T08:23:19;25.70;99.90
7704;DHT22;3894;49.700;10.770;2022-07-22T08:25:44;26.10;99.90
7704;DHT22;3894;49.700;10.770;2022-07-22T08:28:10;25.80;99.90
7704;DHT22;3894;49.700;10.770;2022-07-22T08:30:36;25.70;99.90
7704;DHT22;3894;49.700;10.770;2022-07-22T08:33:02;25.20;99.90
7704;DHT22;3894;49.700;10.770;2022-07-22T08:35:27;25.10;99.90
7704;DHT22;3894;49.700;10.770;2022-07-22T08:37:53;25.40;99.90
7704;DHT22;3894;49.700;10.770;2022-07-22T08:40:18;25.20;99.90
7704;DHT22;3894;49.700;10.770;2022-07-22T08:42:46;25.30;99.90
7704;DHT22;3894;49.700;10.770;2022-07-22T08:45:12;25.60;99.90
7704;DHT22;3894;49.700;10.770;2022-07-22T08:47:38;25.10;99.90
7704;DHT22;3894;49.700;10.770;2022-07-22T08:50:05;25.10;99.90
7704;DHT22;3894;49.700;10.770;2022-07-22T08:52:31;25.10;99.90
7704;DHT22;3894;49.700;10.770;2022-07-22T08:54:56;25.10;99.90
7704;DHT22;3894;49.700;10.770;2022-07-22T08:57:22;25.30;99.90
7704;DHT22;3894;49.700;10.770;2022-07-22T08:59:52;26.10;99.90
7704;DHT22;3894;49.700;10.770;2022-07-22T09:02:19;26.70;99.90
7704;DHT22;3894;49.700;10.770;2022-07-22T09:04:59;26.90;99.90
7704;DHT22;3894;49.700;10.770;2022-07-22T09:07:29;26.30;99.90
7704;DHT22;3894;49.700;10.770;2022-07-22T09:09:56;26.40;99.90
7704;DHT22;3894;49.700;10.770;2022-07-22T09:12:22;26.90;99.90
7704;DHT22;3894;49.700;10.770;2022-07-22T09:14:53;27.10;99.90
7704;DHT22;3894;49.700;10.770;2022-07-22T09:17:27;27.30;99.90
7704;DHT22;3894;49.700;10.770;2022-07-22T09:19:54;26.60;99.90
7704;DHT22;3894;49.700;10.770;2022-07-22T09:22:34;26.90;99.90
7704;DHT22;3894;49.700;10.770;2022-07-22T09:25:37;27.10;99.90
7704;DHT22;3894;49.700;10.770;2022-07-22T09:30:32;27.50;99.90
7704;DHT22;3894;49.700;10.770;2022-07-22T09:32:58;27.50;99.90
7704;DHT22;3894;49.700;10.770;2022-07-22T09:35:24;27.60;99.90
7704;DHT22;3894;49.700;10.770;2022-07-22T09:42:51;27.60;99.90
7704;DHT22;3894;49.700;10.770;2022-07-22T09:45:18;27.60;99.90
7704;DHT22;3894;49.700;10.770;2022-07-22T09:47:45;28.00;99.90
7704;DHT22;3894;49.700;10.770;2022-07-22T09:50:31;28.50;99.90
7704;DHT22;3894;49.700;10.770;2022-07-22T09:52:58;28.80;99.10
7704;DHT22;3894;49.700;10.770;2022-07-22T09:55:26;28.60;98.70
7704;DHT22;3894;49.700;10.770;2022-07-22T09:57:53;28.50;98.80
7704;DHT22;3894;49.700;10.770;2022-07-22T10:00:20;28.70;99.20
7704;DHT22;3894;49.700;10.770;2022-07-22T10:02:49;28.70;97.70
7704;DHT22;3894;49.700;10.770;2022-07-22T10:05:18;28.50;97.60
7704;DHT22;3894;49.700;10.770;2022-07-22T10:07:45;28.70;97.40
7704;DHT22;3894;49.700;10.770;2022-07-22T10:10:15;28.70;97.30
7704;DHT22;3894;49.700;10.770;2022-07-22T10:12:42;28.50;96.60
7704;DHT22;3894;49.700;10.770;2022-07-22T10:15:08;28.30;98.10
7704;DHT22;3894;49.700;10.770;2022-07-22T10:17:38;28.70;97.30
7704;DHT22;3894;49.700;10.770;2022-07-22T10:20:07;28.90;97.40
7704;DHT22;3894;49.700;10.770;2022-07-22T10:25:06;29.50;96.50
7704;DHT22;3894;49.700;10.770;2022-07-22T10:27:45;29.60;95.40
7704;DHT22;3894;49.700;10.770;2022-07-22T10:30:12;29.30;94.80
7704;DHT22;3894;49.700;10.770;2022-07-22T10:32:38;29.40;94.20
7704;DHT22;3894;49.700;10.770;2022-07-22T10:40:23;29.80;94.10
7704;DHT22;3894;49.700;10.770;2022-07-22T10:45:41;29.80;93.10
7704;DHT22;3894;49.700;10.770;2022-07-22T10:48:10;29.20;94.00
7704;DHT22;3894;49.700;10.770;2022-07-22T10:53:24;29.90;93.40
7704;DHT22;3894;49.700;10.770;2022-07-22T11:01:03;29.40;93.00
7704;DHT22;3894;49.700;10.770;2022-07-22T11:03:30;29.60;92.20
7704;DHT22;3894;49.700;10.770;2022-07-22T11:05:57;29.70;92.40
7704;DHT22;3894;49.700;10.770;2022-07-22T11:08:37;30.00;91.70
7704;DHT22;3894;49.700;10.770;2022-07-22T11:11:03;30.40;90.50
7704;DHT22;3894;49.700;10.770;2022-07-22T11:13:33;30.50;91.40
7704;DHT22;3894;49.700;10.770;2022-07-22T11:18:58;31.40;90.40
7704;DHT22;3894;49.700;10.770;2022-07-22T11:21:26;31.50;90.10
7704;DHT22;3894;49.700;10.770;2022-07-22T11:23:54;32.00;89.40
7704;DHT22;3894;49.700;10.770;2022-07-22T11:28:59;31.10;85.80
7704;DHT22;3894;49.700;10.770;2022-07-22T11:31:26;30.60;86.50
7704;DHT22;3894;49.700;10.770;2022-07-22T11:33:51;30.20;87.70
7704;DHT22;3894;49.700;10.770;2022-07-22T11:36:17;30.10;87.20
7704;DHT22;3894;49.700;10.770;2022-07-22T11:38:43;30.20;87.70
7704;DHT22;3894;49.700;10.770;2022-07-22T11:41:09;30.80;88.10
7704;DHT22;3894;49.700;10.770;2022-07-22T11:43:43;30.80;84.90
7704;DHT22;3894;49.700;10.770;2022-07-22T11:46:09;30.50;84.40
7704;DHT22;3894;49.700;10.770;2022-07-22T11:48:35;30.10;85.20
7704;DHT22;3894;49.700;10.770;2022-07-22T11:51:05;29.90;84.90
7704;DHT22;3894;49.700;10.770;2022-07-22T11:53:30;30.50;85.60
7704;DHT22;3894;49.700;10.770;2022-07-22T11:56:00;31.10;83.30
7704;DHT22;3894;49.700;10.770;2022-07-22T11:58:46;30.80;83.10
7704;DHT22;3894;49.700;10.770;2022-07-22T12:01:16;30.70;82.60
7704;DHT22;3894;49.700;10.770;2022-07-22T12:03:53;30.90;82.20
7704;DHT22;3894;49.700;10.770;2022-07-22T12:06:21;29.90;82.80
7704;DHT22;3894;49.700;10.770;2022-07-22T12:11:50;30.40;81.50
7704;DHT22;3894;49.700;10.770;2022-07-22T12:14:21;30.20;81.20
7704;DHT22;3894;49.700;10.770;2022-07-22T12:16:56;30.80;83.80
7704;DHT22;3894;49.700;10.770;2022-07-22T12:19:22;31.50;82.80
7704;DHT22;3894;49.700;10.770;2022-07-22T12:21:53;32.20;81.20
7704;DHT22;3894;49.700;10.770;2022-07-22T12:24:35;32.60;79.80
7704;DHT22;3894;49.700;10.770;2022-07-22T12:27:04;32.70;76.70
7704;DHT22;3894;49.700;10.770;2022-07-22T12:32:08;32.90;79.10
7704;DHT22;3894;49.700;10.770;2022-07-22T12:34:43;33.20;76.80
7704;DHT22;3894;49.700;10.770;2022-07-22T12:37:59;33.20;74.30
7704;DHT22;3894;49.700;10.770;2022-07-22T12:42:40;33.20;74.70
7704;DHT22;3894;49.700;10.770;2022-07-22T12:45:11;33.30;75.20
7704;DHT22;3894;49.700;10.770;2022-07-22T12:47:48;33.70;73.50
7704;DHT22;3894;49.700;10.770;2022-07-22T12:50:36;33.40;70.50
7704;DHT22;3894;49.700;10.770;2022-07-22T12:53:08;32.60;74.40
7704;DHT22;3894;49.700;10.770;2022-07-22T12:58:07;32.70;73.60
7704;DHT22;3894;49.700;10.770;2022-07-22T13:00:36;32.90;73.90
7704;DHT22;3894;49.700;10.770;2022-07-22T13:03:02;33.10;74.30
7704;DHT22;3894;49.700;10.770;2022-07-22T13:05:28;33.20;72.70
7704;DHT22;3894;49.700;10.770;2022-07-22T13:07:54;33.40;73.50
7704;DHT22;3894;49.700;10.770;2022-07-22T13:10:22;33.50;73.00
7704;DHT22;3894;49.700;10.770;2022-07-22T13:12:48;33.60;72.50
7704;DHT22;3894;49.700;10.770;2022-07-22T13:15:13;33.60;71.80
7704;DHT22;3894;49.700;10.770;2022-07-22T13:17:40;33.60;71.70
7704;DHT22;3894;49.700;10.770;2022-07-22T13:20:07;33.60;70.10
7704;DHT22;3894;49.700;10.770;2022-07-22T13:22:32;33.60;70.70
7704;DHT22;3894;49.700;10.770;2022-07-22T13:24:58;33.60;70.40
7704;DHT22;3894;49.700;10.770;2022-07-22T13:27:24;33.70;70.90
7704;DHT22;3894;49.700;10.770;2022-07-22T13:29:49;33.60;68.50
7704;DHT22;3894;49.700;10.770;2022-07-22T13:32:15;33.40;70.50
7704;DHT22;3894;49.700;10.770;2022-07-22T13:34:40;33.50;68.70
7704;DHT22;3894;49.700;10.770;2022-07-22T13:37:06;33.30;67.00
7704;DHT22;3894;49.700;10.770;2022-07-22T13:39:32;33.20;69.40
7704;DHT22;3894;49.700;10.770;2022-07-22T13:41:57;33.20;68.60
7704;DHT22;3894;49.700;10.770;2022-07-22T13:44:23;33.00;69.60
7704;DHT22;3894;49.700;10.770;2022-07-22T13:46:49;32.90;70.30
7704;DHT22;3894;49.700;10.770;2022-07-22T13:49:15;33.10;70.80
7704;DHT22;3894;49.700;10.770;2022-07-22T13:51:40;33.20;68.40
7704;DHT22;3894;49.700;10.770;2022-07-22T13:54:06;32.50;67.50
7704;DHT22;3894;49.700;10.770;2022-07-22T13:56:32;32.50;69.70
7704;DHT22;3894;49.700;10.770;2022-07-22T13:58:59;32.60;68.90
7704;DHT22;3894;49.700;10.770;2022-07-22T14:01:25;32.60;69.20
7704;DHT22;3894;49.700;10.770;2022-07-22T14:03:50;32.50;69.20
7704;DHT22;3894;49.700;10.770;2022-07-22T14:06:16;32.80;69.60
7704;DHT22;3894;49.700;10.770;2022-07-22T14:08:42;32.80;69.40
7704;DHT22;3894;49.700;10.770;2022-07-22T14:11:08;32.60;70.10
7704;DHT22;3894;49.700;10.770;2022-07-22T14:13:33;32.50;68.70
7704;DHT22;3894;49.700;10.770;2022-07-22T14:15:59;32.50;68.60
7704;DHT22;3894;49.700;10.770;2022-07-22T14:18:44;32.60;69.20
7704;DHT22;3894;49.700;10.770;2022-07-22T14:21:10;32.70;68.40
7704;DHT22;3894;49.700;10.770;2022-07-22T14:23:35;32.80;68.60
7704;DHT22;3894;49.700;10.770;2022-07-22T14:26:01;32.60;67.80
7704;DHT22;3894;49.700;10.770;2022-07-22T14:28:27;32.50;69.00
7704;DHT22;3894;49.700;10.770;2022-07-22T14:30:52;32.60;69.00
7704;DHT22;3894;49.700;10.770;2022-07-22T14:33:18;32.50;68.80
7704;DHT22;3894;49.700;10.770;2022-07-22T14:35:43;32.40;69.20
7704;DHT22;3894;49.700;10.770;2022-07-22T14:38:09;32.30;68.60
7704;DHT22;3894;49.700;10.770;2022-07-22T14:40:34;32.30;69.00
7704;DHT22;3894;49.700;10.770;2022-07-22T14:43:00;32.40;69.40
7704;DHT22;3894;49.700;10.770;2022-07-22T14:45:25;32.20;67.30
7704;DHT22;3894;49.700;10.770;2022-07-22T14:47:51;32.10;67.20
7704;DHT22;3894;49.700;10.770;2022-07-22T14:50:16;32.00;66.40
7704;DHT22;3894;49.700;10.770;2022-07-22T14:52:42;31.60;67.20
7704;DHT22;3894;49.700;10.770;2022-07-22T14:55:07;31.60;67.60
7704;DHT22;3894;49.700;10.770;2022-07-22T14:57:33;31.50;67.10
7704;DHT22;3894;49.700;10.770;2022-07-22T14:59:58;31.30;67.10
7704;DHT22;3894;49.700;10.770;2022-07-22T15:02:24;31.50;68.80
7704;DHT22;3894;49.700;10.770;2022-07-22T15:04:50;31.70;67.20
7704;DHT22;3894;49.700;10.770;2022-07-22T15:07:16;31.70;67.60
7704;DHT22;3894;49.700;10.770;2022-07-22T15:09:41;31.60;66.80
7704;DHT22;3894;49.700;10.770;2022-07-22T15:12:07;31.40;66.40
7704;DHT22;3894;49.700;10.770;2022-07-22T15:14:32;31.60;66.00
7704;DHT22;3894;49.700;10.770;2022-07-22T15:16:58;31.80;66.60
7704;DHT22;3894;49.700;10.770;2022-07-22T15:19:24;31.80;65.50
7704;DHT22;3894;49.700;10.770;2022-07-22T15:21:49;31.80;65.80
7704;DHT22;3894;49.700;10.770;2022-07-22T15:24:15;31.80;65.60
7704;DHT22;3894;49.700;10.770;2022-07-22T15:26:40;31.80;66.50
7704;DHT22;3894;49.700;10.770;2022-07-22T15:29:06;31.90;66.70
7704;DHT22;3894;49.700;10.770;2022-07-22T15:31:31;31.90;66.80
7704;DHT22;3894;49.700;10.770;2022-07-22T15:33:57;32.00;67.60
7704;DHT22;3894;49.700;10.770;2022-07-22T15:36:23;32.00;67.00
7704;DHT22;3894;49.700;10.770;2022-07-22T15:38:50;32.20;67.20
7704;DHT22;3894;49.700;10.770;2022-07-22T15:41:16;32.30;66.70
7704;DHT22;3894;49.700;10.770;2022-07-22T15:43:41;32.20;67.00
7704;DHT22;3894;49.700;10.770;2022-07-22T15:46:07;32.30;66.40
7704;DHT22;3894;49.700;10.770;2022-07-22T15:48:33;32.40;65.80
7704;DHT22;3894;49.700;10.770;2022-07-22T15:50:59;32.40;66.00
7704;DHT22;3894;49.700;10.770;2022-07-22T15:53:24;32.30;65.60
7704;DHT22;3894;49.700;10.770;2022-07-22T15:55:50;32.20;66.30
7704;DHT22;3894;49.700;10.770;2022-07-22T15:58:16;32.20;66.20
7704;DHT22;3894;49.700;10.770;2022-07-22T16:01:00;32.30;66.40
7704;DHT22;3894;49.700;10.770;2022-07-22T16:03:26;32.40;65.90
7704;DHT22;3894;49.700;10.770;2022-07-22T16:05:52;32.40;65.30
7704;DHT22;3894;49.700;10.770;2022-07-22T16:08:17;32.10;65.70
7704;DHT22;3894;49.700;10.770;2022-07-22T16:10:43;32.20;66.50
7704;DHT22;3894;49.700;10.770;2022-07-22T16:13:08;32.30;66.00
7704;DHT22;3894;49.700;10.770;2022-07-22T16:15:34;32.40;66.10
7704;DHT22;3894;49.700;10.770;2022-07-22T16:18:00;32.40;65.00
7704;DHT22;3894;49.700;10.770;2022-07-22T16:20:25;32.50;65.20
7704;DHT22;3894;49.700;10.770;2022-07-22T16:22:51;32.70;65.50
7704;DHT22;3894;49.700;10.770;2022-07-22T16:25:16;32.70;65.20